sensor_id;sensor_type;location;lat;lon;timestamp;P1;durP1;ratioP1;P2;durP2;ratioP2
974;SDS011;6115;49.296;10.602;2023-11-19T00:01:07;68.60;;;14.80;;
974;SDS011;6115;49.296;10.602;2023-11-19T00:06:08;69.00;;;14.83;;
974;SDS011;6115;49.296;10.602;2023-11-19T00:11:09;68.80;;;15.00;;
974;SDS011;6115;49.296;10.602;2023-11-19T00:16:11;68.60;;;14.87;;
974;SDS011;6115;49.296;10.602;2023-11-19T00:21:12;68.37;;;14.70;;
974;SDS011;6115;49.296;10.602;2023-11-19T00:26:12;68.70;;;14.73;;
974;SDS011;6115;49.296;10.602;2023-11-19T00:31:14;70.70;;;15.50;;
974;SDS011;6115;49.296;10.602;2023-11-19T00:36:15;69.40;;;15.57;;
974;SDS011;6115;49.296;10.602;2023-11-19T00:41:16;72.90;;;16.97;;
974;SDS011;6115;49.296;10.602;2023-11-19T00:46:16;70.27;;;16.53;;
974;SDS011;6115;49.296;10.602;2023-11-19T00:51:17;69.23;;;15.20;;
974;SDS011;6115;49.296;10.602;2023-11-19T00:56:18;73.00;;;16.27;;
974;SDS011;6115;49.296;10.602;2023-11-19T01:01:19;70.57;;;15.57;;
974;SDS011;6115;49.296;10.602;2023-11-19T01:06:27;69.33;;;15.20;;
974;SDS011;6115;49.296;10.602;2023-11-19T01:11:31;68.40;;;14.90;;
974;SDS011;6115;49.296;10.602;2023-11-19T01:16:31;70.87;;;15.60;;
974;SDS011;6115;49.296;10.602;2023-11-19T01:21:32;67.97;;;14.67;;
974;SDS011;6115;49.296;10.602;2023-11-19T01:26:32;69.67;;;15.63;;
974;SDS011;6115;49.296;10.602;2023-11-19T01:31:33;69.37;;;15.60;;
974;SDS011;6115;49.296;10.602;2023-11-19T01:36:34;68.90;;;15.23;;
974;SDS011;6115;49.296;10.602;2023-11-19T01:41:35;68.73;;;14.90;;
974;SDS011;6115;49.296;10.602;2023-11-19T01:46:36;69.43;;;15.70;;
974;SDS011;6115;49.296;10.602;2023-11-19T01:51:37;69.07;;;15.73;;
974;SDS011;6115;49.296;10.602;2023-11-19T01:56:38;69.80;;;15.33;;
974;SDS011;6115;49.296;10.602;2023-11-19T02:01:41;68.67;;;15.80;;
974;SDS011;6115;49.296;10.602;2023-11-19T02:06:42;69.93;;;17.07;;
974;SDS011;6115;49.296;10.602;2023-11-19T02:11:43;68.97;;;16.10;;
974;SDS011;6115;49.296;10.602;2023-11-19T02:16:44;69.97;;;16.40;;
974;SDS011;6115;49.296;10.602;2023-11-19T02:21:44;69.30;;;16.30;;
974;SDS011;6115;49.296;10.602;2023-11-19T02:26:47;70.70;;;16.47;;
974;SDS011;6115;49.296;10.602;2023-11-19T02:31:59;70.57;;;16.43;;
974;SDS011;6115;49.296;10.602;2023-11-19T02:36:59;69.63;;;15.80;;
974;SDS011;6115;49.296;10.602;2023-11-19T02:42:00;70.10;;;16.80;;
974;SDS011;6115;49.296;10.602;2023-11-19T02:47:00;70.13;;;16.57;;
974;SDS011;6115;49.296;10.602;2023-11-19T02:52:03;69.57;;;16.47;;
974;SDS011;6115;49.296;10.602;2023-11-19T02:57:05;69.67;;;16.37;;
974;SDS011;6115;49.296;10.602;2023-11-19T03:02:08;69.70;;;15.53;;
974;SDS011;6115;49.296;10.602;2023-11-19T03:07:11;70.50;;;16.80;;
974;SDS011;6115;49.296;10.602;2023-11-19T03:12:13;71.30;;;16.10;;
974;SDS011;6115;49.296;10.602;2023-11-19T03:17:13;69.90;;;16.40;;
974;SDS011;6115;49.296;10.602;2023-11-19T03:22:14;69.67;;;16.30;;
974;SDS011;6115;49.296;10.602;2023-11-19T03:27:15;71.70;;;15.70;;
974;SDS011;6115;49.296;10.602;2023-11-19T03:32:15;70.50;;;16.40;;
974;SDS011;6115;49.296;10.602;2023-11-19T03:37:16;68.70;;;15.40;;
974;SDS011;6115;49.296;10.602;2023-11-19T03:42:19;68.67;;;14.40;;
974;SDS011;6115;49.296;10.602;2023-11-19T03:47:20;69.60;;;16.00;;
974;SDS011;6115;49.296;10.602;2023-11-19T03:52:21;68.90;;;15.43;;
974;SDS011;6115;49.296;10.602;2023-11-19T03:57:21;68.37;;;15.23;;
974;SDS011;6115;49.296;10.602;2023-11-19T04:02:22;68.70;;;15.80;;
974;SDS011;6115;49.296;10.602;2023-11-19T04:07:23;69.27;;;16.20;;
974;SDS011;6115;49.296;10.602;2023-11-19T04:12:24;69.80;;;16.60;;
974;SDS011;6115;49.296;10.602;2023-11-19T04:17:25;69.33;;;16.80;;
974;SDS011;6115;49.296;10.602;2023-11-19T04:22:25;68.97;;;16.57;;
974;SDS011;6115;49.296;10.602;2023-11-19T04:27:26;70.07;;;17.50;;
974;SDS011;6115;49.296;10.602;2023-11-19T04:32:26;68.97;;;16.50;;
974;SDS011;6115;49.296;10.602;2023-11-19T04:37:27;69.87;;;17.50;;
974;SDS011;6115;49.296;10.602;2023-11-19T04:42:27;70.17;;;17.90;;
974;SDS011;6115;49.296;10.602;2023-11-19T04:47:29;69.90;;;18.00;;
974;SDS011;6115;49.296;10.602;2023-11-19T04:52:30;70.07;;;18.70;;
974;SDS011;6115;49.296;10.602;2023-11-19T04:57:30;71.27;;;19.63;;
974;SDS011;6115;49.296;10.602;2023-11-19T05:02:33;70.10;;;18.53;;
974;SDS011;6115;49.296;10.602;2023-11-19T05:07:34;70.50;;;19.33;;
974;SDS011;6115;49.296;10.602;2023-11-19T05:12:35;70.97;;;19.90;;
974;SDS011;6115;49.296;10.602;2023-11-19T05:17:35;70.37;;;19.87;;
974;SDS011;6115;49.296;10.602;2023-11-19T05:22:37;70.53;;;19.60;;
974;SDS011;6115;49.296;10.602;2023-11-19T05:27:38;71.77;;;21.07;;
974;SDS011;6115;49.296;10.602;2023-11-19T05:32:38;71.30;;;19.93;;
974;SDS011;6115;49.296;10.602;2023-11-19T05:37:39;70.87;;;20.27;;
974;SDS011;6115;49.296;10.602;2023-11-19T05:42:40;71.13;;;20.43;;
974;SDS011;6115;49.296;10.602;2023-11-19T05:47:41;70.53;;;20.50;;
974;SDS011;6115;49.296;10.602;2023-11-19T05:52:42;70.87;;;19.67;;
974;SDS011;6115;49.296;10.602;2023-11-19T05:57:43;71.10;;;21.40;;
974;SDS011;6115;49.296;10.602;2023-11-19T06:02:44;71.40;;;21.27;;
974;SDS011;6115;49.296;10.602;2023-11-19T06:07:45;70.93;;;20.80;;
974;SDS011;6115;49.296;10.602;2023-11-19T06:12:46;71.17;;;21.20;;
974;SDS011;6115;49.296;10.602;2023-11-19T06:17:47;71.60;;;22.47;;
974;SDS011;6115;49.296;10.602;2023-11-19T06:22:48;71.77;;;22.40;;
974;SDS011;6115;49.296;10.602;2023-11-19T06:27:49;72.00;;;22.97;;
974;SDS011;6115;49.296;10.602;2023-11-19T06:32:50;72.10;;;22.70;;
974;SDS011;6115;49.296;10.602;2023-11-19T06:37:51;71.90;;;22.30;;
974;SDS011;6115;49.296;10.602;2023-11-19T06:42:51;72.33;;;22.47;;
974;SDS011;6115;49.296;10.602;2023-11-19T06:47:52;73.40;;;22.50;;
974;SDS011;6115;49.296;10.602;2023-11-19T06:52:53;71.87;;;21.50;;
974;SDS011;6115;49.296;10.602;2023-11-19T06:57:53;71.67;;;21.70;;
974;SDS011;6115;49.296;10.602;2023-11-19T07:02:54;71.33;;;21.20;;
974;SDS011;6115;49.296;10.602;2023-11-19T07:07:55;71.90;;;22.33;;
974;SDS011;6115;49.296;10.602;2023-11-19T07:12:56;71.40;;;21.47;;
974;SDS011;6115;49.296;10.602;2023-11-19T07:17:57;72.40;;;21.77;;
974;SDS011;6115;49.296;10.602;2023-11-19T07:22:59;72.27;;;22.60;;
974;SDS011;6115;49.296;10.602;2023-11-19T07:28:01;72.27;;;22.80;;
974;SDS011;6115;49.296;10.602;2023-11-19T07:33:04;71.80;;;21.70;;
974;SDS011;6115;49.296;10.602;2023-11-19T07:38:05;72.13;;;22.30;;
974;SDS011;6115;49.296;10.602;2023-11-19T07:43:05;74.00;;;24.30;;
974;SDS011;6115;49.296;10.602;2023-11-19T07:48:07;71.97;;;22.87;;
974;SDS011;6115;49.296;10.602;2023-11-19T07:53:07;72.07;;;22.77;;
974;SDS011;6115;49.296;10.602;2023-11-19T07:58:09;71.97;;;22.37;;
974;SDS011;6115;49.296;10.602;2023-11-19T08:03:10;71.80;;;22.50;;
974;SDS011;6115;49.296;10.602;2023-11-19T08:08:11;71.83;;;22.07;;
974;SDS011;6115;49.296;10.602;2023-11-19T08:13:11;73.57;;;22.90;;
974;SDS011;6115;49.296;10.602;2023-11-19T08:18:12;71.27;;;21.17;;
974;SDS011;6115;49.296;10.602;2023-11-19T08:23:13;71.93;;;21.63;;
974;SDS011;6115;49.296;10.602;2023-11-19T08:28:14;71.87;;;22.57;;
974;SDS011;6115;49.296;10.602;2023-11-19T08:33:14;71.07;;;20.60;;
974;SDS011;6115;49.296;10.602;2023-11-19T08:38:15;72.20;;;21.47;;
974;SDS011;6115;49.296;10.602;2023-11-19T08:43:15;70.87;;;19.90;;
974;SDS011;6115;49.296;10.602;2023-11-19T08:48:16;72.80;;;19.87;;
974;SDS011;6115;49.296;10.602;2023-11-19T08:53:17;70.20;;;19.03;;
974;SDS011;6115;49.296;10.602;2023-11-19T08:58:17;69.80;;;18.30;;
974;SDS011;6115;49.296;10.602;2023-11-19T09:03:18;70.27;;;20.07;;
974;SDS011;6115;49.296;10.602;2023-11-19T09:08:18;69.10;;;17.10;;
974;SDS011;6115;49.296;10.602;2023-11-19T09:13:19;68.80;;;16.87;;
974;SDS011;6115;49.296;10.602;2023-11-19T09:18:19;67.97;;;15.20;;
974;SDS011;6115;49.296;10.602;2023-11-19T09:23:20;68.67;;;15.33;;
974;SDS011;6115;49.296;10.602;2023-11-19T09:28:21;68.27;;;15.17;;
974;SDS011;6115;49.296;10.602;2023-11-19T09:33:21;69.37;;;14.23;;
974;SDS011;6115;49.296;10.602;2023-11-19T09:38:22;67.30;;;13.40;;
974;SDS011;6115;49.296;10.602;2023-11-19T09:43:22;67.50;;;14.07;;
974;SDS011;6115;49.296;10.602;2023-11-19T09:48:24;69.37;;;15.90;;
974;SDS011;6115;49.296;10.602;2023-11-19T09:53:25;68.47;;;15.87;;
974;SDS011;6115;49.296;10.602;2023-11-19T09:58:26;68.80;;;16.57;;
974;SDS011;6115;49.296;10.602;2023-11-19T10:03:27;69.30;;;17.30;;
974;SDS011;6115;49.296;10.602;2023-11-19T10:08:32;69.17;;;17.40;;
974;SDS011;6115;49.296;10.602;2023-11-19T10:13:35;68.47;;;16.93;;
974;SDS011;6115;49.296;10.602;2023-11-19T10:18:37;68.37;;;16.63;;
974;SDS011;6115;49.296;10.602;2023-11-19T10:28:50;65.90;;;11.70;;
974;SDS011;6115;49.296;10.602;2023-11-19T10:33:51;65.70;;;11.10;;
974;SDS011;6115;49.296;10.602;2023-11-19T10:38:53;66.80;;;10.40;;
974;SDS011;6115;49.296;10.602;2023-11-19T10:43:57;66.27;;;10.67;;
974;SDS011;6115;49.296;10.602;2023-11-19T10:48:58;65.33;;;10.33;;
974;SDS011;6115;49.296;10.602;2023-11-19T10:54:03;65.53;;;10.70;;
974;SDS011;6115;49.296;10.602;2023-11-19T10:59:05;66.43;;;11.67;;
974;SDS011;6115;49.296;10.602;2023-11-19T11:04:10;66.27;;;10.83;;
974;SDS011;6115;49.296;10.602;2023-11-19T11:09:15;65.10;;;10.33;;
974;SDS011;6115;49.296;10.602;2023-11-19T11:14:16;65.67;;;11.47;;
974;SDS011;6115;49.296;10.602;2023-11-19T11:19:20;65.17;;;10.30;;
974;SDS011;6115;49.296;10.602;2023-11-19T11:30:11;65.37;;;9.20;;
974;SDS011;6115;49.296;10.602;2023-11-19T11:40:32;63.07;;;6.80;;
974;SDS011;6115;49.296;10.602;2023-11-19T11:45:37;64.10;;;7.53;;
974;SDS011;6115;49.296;10.602;2023-11-19T11:50:49;63.40;;;6.87;;
974;SDS011;6115;49.296;10.602;2023-11-19T11:55:53;64.00;;;7.63;;
974;SDS011;6115;49.296;10.602;2023-11-19T12:00:59;62.87;;;6.60;;
974;SDS011;6115;49.296;10.602;2023-11-19T12:06:02;63.03;;;6.97;;
974;SDS011;6115;49.296;10.602;2023-11-19T12:11:03;62.67;;;6.40;;
974;SDS011;6115;49.296;10.602;2023-11-19T12:21:07;62.73;;;6.07;;
974;SDS011;6115;49.296;10.602;2023-11-19T12:26:20;62.10;;;5.80;;
974;SDS011;6115;49.296;10.602;2023-11-19T12:31:30;62.67;;;6.20;;
974;SDS011;6115;49.296;10.602;2023-11-19T12:36:31;71.40;;;7.60;;
974;SDS011;6115;49.296;10.602;2023-11-19T12:41:31;63.40;;;6.50;;
974;SDS011;6115;49.296;10.602;2023-11-19T12:46:34;63.77;;;7.60;;
974;SDS011;6115;49.296;10.602;2023-11-19T12:51:34;62.87;;;6.80;;
974;SDS011;6115;49.296;10.602;2023-11-19T12:56:35;62.37;;;6.27;;
974;SDS011;6115;49.296;10.602;2023-11-19T13:01:37;66.37;;;6.87;;
974;SDS011;6115;49.296;10.602;2023-11-19T13:06:44;62.57;;;6.27;;
974;SDS011;6115;49.296;10.602;2023-11-19T13:11:45;62.97;;;5.93;;
974;SDS011;6115;49.296;10.602;2023-11-19T13:16:46;62.40;;;6.00;;
974;SDS011;6115;49.296;10.602;2023-11-19T13:21:47;63.70;;;5.93;;
974;SDS011;6115;49.296;10.602;2023-11-19T13:26:48;62.40;;;6.43;;
974;SDS011;6115;49.296;10.602;2023-11-19T13:31:48;62.53;;;6.50;;
974;SDS011;6115;49.296;10.602;2023-11-19T13:36:49;61.90;;;6.33;;
974;SDS011;6115;49.296;10.602;2023-11-19T13:41:50;63.30;;;7.67;;
974;SDS011;6115;49.296;10.602;2023-11-19T13:46:51;62.13;;;6.50;;
974;SDS011;6115;49.296;10.602;2023-11-19T13:51:51;63.50;;;6.07;;
974;SDS011;6115;49.296;10.602;2023-11-19T13:56:56;63.50;;;6.97;;
974;SDS011;6115;49.296;10.602;2023-11-19T14:01:58;64.17;;;7.60;;
974;SDS011;6115;49.296;10.602;2023-11-19T14:07:02;64.33;;;10.40;;
974;SDS011;6115;49.296;10.602;2023-11-19T14:12:03;64.43;;;9.27;;
974;SDS011;6115;49.296;10.602;2023-11-19T14:17:04;63.30;;;7.50;;
974;SDS011;6115;49.296;10.602;2023-11-19T14:22:04;63.80;;;8.60;;
974;SDS011;6115;49.296;10.602;2023-11-19T14:27:05;63.67;;;8.60;;
974;SDS011;6115;49.296;10.602;2023-11-19T14:32:06;63.60;;;8.53;;
974;SDS011;6115;49.296;10.602;2023-11-19T14:37:06;63.17;;;7.93;;
974;SDS011;6115;49.296;10.602;2023-11-19T14:42:07;63.83;;;7.70;;
974;SDS011;6115;49.296;10.602;2023-11-19T14:47:08;65.80;;;9.87;;
974;SDS011;6115;49.296;10.602;2023-11-19T14:52:10;67.87;;;11.10;;
974;SDS011;6115;49.296;10.602;2023-11-19T14:57:11;64.97;;;9.00;;
974;SDS011;6115;49.296;10.602;2023-11-19T15:02:11;71.70;;;11.30;;
974;SDS011;6115;49.296;10.602;2023-11-19T15:07:12;67.70;;;9.10;;
974;SDS011;6115;49.296;10.602;2023-11-19T15:12:12;62.87;;;7.30;;
974;SDS011;6115;49.296;10.602;2023-11-19T15:17:14;63.70;;;7.30;;
974;SDS011;6115;49.296;10.602;2023-11-19T15:22:14;64.27;;;8.40;;
974;SDS011;6115;49.296;10.602;2023-11-19T15:27:15;63.87;;;8.03;;
974;SDS011;6115;49.296;10.602;2023-11-19T15:32:16;63.90;;;8.37;;
974;SDS011;6115;49.296;10.602;2023-11-19T15:37:17;67.33;;;7.73;;
974;SDS011;6115;49.296;10.602;2023-11-19T15:42:18;63.77;;;8.50;;
974;SDS011;6115;49.296;10.602;2023-11-19T15:47:19;64.20;;;8.70;;
974;SDS011;6115;49.296;10.602;2023-11-19T15:52:24;63.57;;;8.27;;
974;SDS011;6115;49.296;10.602;2023-11-19T15:57:26;63.40;;;7.83;;
974;SDS011;6115;49.296;10.602;2023-11-19T16:02:27;63.80;;;8.03;;
974;SDS011;6115;49.296;10.602;2023-11-19T16:07:27;63.60;;;8.03;;
974;SDS011;6115;49.296;10.602;2023-11-19T16:12:30;63.73;;;7.90;;
974;SDS011;6115;49.296;10.602;2023-11-19T16:17:30;66.57;;;8.57;;
974;SDS011;6115;49.296;10.602;2023-11-19T16:22:31;64.00;;;8.40;;
974;SDS011;6115;49.296;10.602;2023-11-19T16:27:32;65.00;;;7.90;;
974;SDS011;6115;49.296;10.602;2023-11-19T16:32:34;65.60;;;8.10;;
974;SDS011;6115;49.296;10.602;2023-11-19T16:37:48;64.60;;;8.83;;
974;SDS011;6115;49.296;10.602;2023-11-19T16:42:49;63.67;;;7.80;;
974;SDS011;6115;49.296;10.602;2023-11-19T16:47:50;65.77;;;8.97;;
974;SDS011;6115;49.296;10.602;2023-11-19T16:52:52;64.90;;;8.57;;
974;SDS011;6115;49.296;10.602;2023-11-19T16:57:52;65.20;;;8.13;;
974;SDS011;6115;49.296;10.602;2023-11-19T17:02:54;64.47;;;8.40;;
974;SDS011;6115;49.296;10.602;2023-11-19T17:07:54;63.97;;;8.40;;
974;SDS011;6115;49.296;10.602;2023-11-19T17:12:55;64.80;;;8.40;;
974;SDS011;6115;49.296;10.602;2023-11-19T17:17:55;65.10;;;8.27;;
974;SDS011;6115;49.296;10.602;2023-11-19T17:22:56;66.30;;;8.80;;
974;SDS011;6115;49.296;10.602;2023-11-19T17:27:56;64.60;;;8.53;;
974;SDS011;6115;49.296;10.602;2023-11-19T17:32:57;65.40;;;9.00;;
974;SDS011;6115;49.296;10.602;2023-11-19T17:37:57;64.13;;;8.47;;
974;SDS011;6115;49.296;10.602;2023-11-19T17:42:58;64.17;;;8.27;;
974;SDS011;6115;49.296;10.602;2023-11-19T17:47:59;65.43;;;9.23;;
974;SDS011;6115;49.296;10.602;2023-11-19T17:53:00;64.37;;;8.20;;
974;SDS011;6115;49.296;10.602;2023-11-19T17:58:00;65.17;;;8.40;;
974;SDS011;6115;49.296;10.602;2023-11-19T18:03:02;65.37;;;8.20;;
974;SDS011;6115;49.296;10.602;2023-11-19T18:08:03;64.00;;;8.30;;
974;SDS011;6115;49.296;10.602;2023-11-19T18:13:05;64.63;;;8.57;;
974;SDS011;6115;49.296;10.602;2023-11-19T18:18:07;64.00;;;8.50;;
974;SDS011;6115;49.296;10.602;2023-11-19T18:23:08;65.77;;;9.30;;
974;SDS011;6115;49.296;10.602;2023-11-19T18:28:09;64.50;;;8.67;;
974;SDS011;6115;49.296;10.602;2023-11-19T18:33:10;64.47;;;8.90;;
974;SDS011;6115;49.296;10.602;2023-11-19T18:38:11;65.30;;;9.33;;
974;SDS011;6115;49.296;10.602;2023-11-19T18:43:11;67.20;;;8.73;;
974;SDS011;6115;49.296;10.602;2023-11-19T18:48:13;64.70;;;9.27;;
974;SDS011;6115;49.296;10.602;2023-11-19T18:53:15;66.50;;;10.47;;
974;SDS011;6115;49.296;10.602;2023-11-19T18:58:15;64.97;;;9.20;;
974;SDS011;6115;49.296;10.602;2023-11-19T19:03:17;64.90;;;9.40;;
974;SDS011;6115;49.296;10.602;2023-11-19T19:08:21;64.80;;;8.90;;
974;SDS011;6115;49.296;10.602;2023-11-19T19:13:22;65.27;;;8.87;;
974;SDS011;6115;49.296;10.602;2023-11-19T19:18:22;64.37;;;8.57;;
974;SDS011;6115;49.296;10.602;2023-11-19T19:23:23;64.60;;;9.17;;
974;SDS011;6115;49.296;10.602;2023-11-19T19:28:24;65.30;;;8.77;;
974;SDS011;6115;49.296;10.602;2023-11-19T19:33:25;64.87;;;8.50;;
974;SDS011;6115;49.296;10.602;2023-11-19T19:38:25;65.77;;;9.20;;
974;SDS011;6115;49.296;10.602;2023-11-19T19:43:26;68.00;;;9.37;;
974;SDS011;6115;49.296;10.602;2023-11-19T19:48:27;65.50;;;9.23;;
974;SDS011;6115;49.296;10.602;2023-11-19T19:53:28;67.00;;;9.70;;
974;SDS011;6115;49.296;10.602;2023-11-19T19:58:28;65.20;;;9.37;;
974;SDS011;6115;49.296;10.602;2023-11-19T20:03:29;66.00;;;9.20;;
974;SDS011;6115;49.296;10.602;2023-11-19T20:08:31;65.93;;;9.90;;
974;SDS011;6115;49.296;10.602;2023-11-19T20:13:31;66.50;;;10.10;;
974;SDS011;6115;49.296;10.602;2023-11-19T20:18:32;66.07;;;10.57;;
974;SDS011;6115;49.296;10.602;2023-11-19T20:23:33;66.40;;;10.10;;
974;SDS011;6115;49.296;10.602;2023-11-19T20:28:33;67.17;;;10.83;;
974;SDS011;6115;49.296;10.602;2023-11-19T20:33:34;65.70;;;9.57;;
974;SDS011;6115;49.296;10.602;2023-11-19T20:38:34;65.60;;;10.00;;
974;SDS011;6115;49.296;10.602;2023-11-19T20:43:36;65.87;;;10.07;;
974;SDS011;6115;49.296;10.602;2023-11-19T20:48:37;67.57;;;10.63;;
974;SDS011;6115;49.296;10.602;2023-11-19T20:53:38;67.70;;;10.60;;
974;SDS011;6115;49.296;10.602;2023-11-19T20:58:42;67.30;;;10.87;;
974;SDS011;6115;49.296;10.602;2023-11-19T21:03:42;65.97;;;11.30;;
974;SDS011;6115;49.296;10.602;2023-11-19T21:08:43;66.70;;;11.00;;
974;SDS011;6115;49.296;10.602;2023-11-19T21:13:43;72.53;;;10.70;;
974;SDS011;6115;49.296;10.602;2023-11-19T21:18:44;65.67;;;10.80;;
974;SDS011;6115;49.296;10.602;2023-11-19T21:23:45;67.00;;;10.90;;
974;SDS011;6115;49.296;10.602;2023-11-19T21:28:47;65.70;;;10.30;;
974;SDS011;6115;49.296;10.602;2023-11-19T21:33:47;70.97;;;10.90;;
974;SDS011;6115;49.296;10.602;2023-11-19T21:38:48;67.50;;;11.70;;
974;SDS011;6115;49.296;10.602;2023-11-19T21:43:48;73.60;;;10.50;;
974;SDS011;6115;49.296;10.602;2023-11-19T21:48:49;69.17;;;11.20;;
974;SDS011;6115;49.296;10.602;2023-11-19T21:53:49;67.67;;;11.40;;
974;SDS011;6115;49.296;10.602;2023-11-19T21:58:50;66.17;;;11.33;;
974;SDS011;6115;49.296;10.602;2023-11-19T22:03:50;66.97;;;12.70;;
974;SDS011;6115;49.296;10.602;2023-11-19T22:08:51;68.50;;;12.37;;
974;SDS011;6115;49.296;10.602;2023-11-19T22:13:51;66.50;;;11.30;;
974;SDS011;6115;49.296;10.602;2023-11-19T22:18:52;65.70;;;11.17;;
974;SDS011;6115;49.296;10.602;2023-11-19T22:23:52;65.90;;;11.47;;
974;SDS011;6115;49.296;10.602;2023-11-19T22:28:53;65.90;;;11.87;;
974;SDS011;6115;49.296;10.602;2023-11-19T22:33:54;70.70;;;13.47;;
974;SDS011;6115;49.296;10.602;2023-11-19T22:38:54;67.17;;;13.10;;
974;SDS011;6115;49.296;10.602;2023-11-19T22:43:56;66.37;;;11.80;;
974;SDS011;6115;49.296;10.602;2023-11-19T22:48:57;67.37;;;12.63;;
974;SDS011;6115;49.296;10.602;2023-11-19T22:53:57;69.27;;;12.80;;
974;SDS011;6115;49.296;10.602;2023-11-19T22:58:58;65.77;;;12.00;;
974;SDS011;6115;49.296;10.602;2023-11-19T23:03:58;68.30;;;11.97;;
974;SDS011;6115;49.296;10.602;2023-11-19T23:08:59;70.13;;;13.10;;
974;SDS011;6115;49.296;10.602;2023-11-19T23:13:59;66.50;;;12.60;;
974;SDS011;6115;49.296;10.602;2023-11-19T23:19:03;66.90;;;11.70;;
974;SDS011;6115;49.296;10.602;2023-11-19T23:24:04;70.90;;;13.40;;
974;SDS011;6115;49.296;10.602;2023-11-19T23:29:05;71.63;;;12.10;;
974;SDS011;6115;49.296;10.602;2023-11-19T23:34:07;67.27;;;11.83;;
974;SDS011;6115;49.296;10.602;2023-11-19T23:39:07;69.90;;;13.03;;
974;SDS011;6115;49.296;10.602;2023-11-19T23:44:09;68.07;;;11.63;;
974;SDS011;6115;49.296;10.602;2023-11-19T23:49:10;69.90;;;13.40;;
974;SDS011;6115;49.296;10.602;2023-11-19T23:54:11;67.43;;;12.73;;
974;SDS011;6115;49.296;10.602;2023-11-19T23:59:12;69.67;;;18.63;;
